Richmond, Kentucky
Current Conditions -  °F | °C
As of 7:35 PM on Saturday 25 Oct 2014 (Local Time) from KI39 Reporting Station
Clear Clear  
Wind Chill: 64°   Ceiling: Unl
Heat Index: 64°   Visibility: 10mi
Dew Point: 55°   Wind: 5mph
Humidity: 73%   Direction: 240°WSW
Pressure: 29.98"   Gusts: NA
Location:  37.75°N, 84.3°W
Report Text: KI39 252335Z AUTO 24004KT 10SM CLR 18/13 A2998 RMK AO2
Loading
Personal Weather Stations






























Interactive Weather Map New forecast layout! Learn more

10-Day Weather Forecast

Advertisements
Track Severe Weather on mobile